Station History

Weather Underground - logo

Station Historical Data
Daily Summary for February 26, 2018 Units:  English    Metric   Both
« Previous Day
Next Day »
Daily Weekly Monthly Yearly Custom
  High: Low: Average:
Temperature: 58.1 °F 33.0 °F 45.5 °F
Dew Point: 43.0 °F 29.4 °F 35.6 °F
Humidity: 94 % 40 % 72 %
Wind Speed: 9.0 mph 0.0 mph 1 mph
Wind Gust: 9.0 mph - -
Wind:- - SW
Pressure: 30.19 in 29.88 in -
Precipitation: 0.23 in    
Historical Graphs
 
 
Tabular Data for February 26, 2018
Time Temperature Dew Point Pressure Wind Wind Speed Wind Gust Humidity Rainfall Rate (Hourly)
00:02 38.1 °F 32.8 °F 30.19 in Calm     81 % 0.00 in
00:08 38.1 °F 32.8 °F 30.19 in Calm     81 % 0.00 in
00:13 37.9 °F 32.6 °F 30.19 in Calm     81 % 0.00 in
00:18 37.5 °F 32.2 °F 30.19 in Calm     81 % 0.00 in
00:23 37.2 °F 32.2 °F 30.19 in Calm     82 % 0.00 in
00:28 37.0 °F 31.7 °F 30.19 in Calm     81 % 0.00 in
00:33 36.9 °F 32.2 °F 30.19 in Calm     83 % 0.00 in
00:38 36.7 °F 32.0 °F 30.18 in Calm     83 % 0.00 in
00:43 36.7 °F 32.3 °F 30.18 in Calm     84 % 0.00 in
00:48 36.5 °F 31.8 °F 30.18 in Calm     83 % 0.00 in
00:53 36.3 °F 31.9 °F 30.18 in Calm     84 % 0.00 in
00:58 36.2 °F 31.5 °F 30.18 in Calm     83 % 0.00 in
01:03 36.0 °F 31.6 °F 30.18 in Calm     84 % 0.00 in
01:08 35.9 °F 31.5 °F 30.18 in Calm     84 % 0.00 in
01:13 35.8 °F 31.7 °F 30.18 in Calm     85 % 0.00 in
01:18 35.8 °F 31.7 °F 30.17 in Calm     85 % 0.00 in
01:23 36.4 °F 32.3 °F 30.18 in Calm     85 % 0.00 in
01:28 36.7 °F 32.3 °F 30.18 in Calm     84 % 0.00 in
01:33 36.7 °F 32.0 °F 30.17 in Calm     83 % 0.00 in
01:38 36.4 °F 31.4 °F 30.17 in Calm     82 % 0.00 in
01:43 36.1 °F 31.4 °F 30.17 in Calm     83 % 0.00 in
01:48 36.0 °F 31.6 °F 30.17 in Calm     84 % 0.00 in
01:53 35.9 °F 31.5 °F 30.17 in Calm     84 % 0.00 in
01:58 35.8 °F 31.4 °F 30.16 in Calm     84 % 0.00 in
02:03 35.6 °F 31.5 °F 30.16 in Calm     85 % 0.00 in
02:08 35.5 °F 31.4 °F 30.16 in Calm     85 % 0.00 in
02:13 35.2 °F 30.9 °F 30.16 in Calm     84 % 0.00 in
02:18 34.9 °F 30.6 °F 30.16 in Calm     84 % 0.00 in
02:23 34.5 °F 29.9 °F 30.15 in Calm     83 % 0.00 in
02:28 34.1 °F 29.8 °F 30.15 in Calm     84 % 0.00 in
02:33 33.8 °F 29.8 °F 30.15 in Calm     85 % 0.00 in
02:38 33.9 °F 30.2 °F 30.15 in Calm     86 % 0.00 in
02:43 34.0 °F 30.3 °F 30.15 in Calm     86 % 0.00 in
02:48 33.9 °F 30.2 °F 30.15 in Calm     86 % 0.00 in
02:53 34.0 °F 30.3 °F 30.14 in Calm     86 % 0.00 in
02:58 34.0 °F 30.3 °F 30.14 in Calm     86 % 0.00 in
03:03 34.0 °F 30.3 °F 30.14 in Calm     86 % 0.00 in
03:08 33.8 °F 30.1 °F 30.14 in Calm     86 % 0.00 in
03:14 33.7 °F 30.2 °F 30.14 in Calm     87 % 0.00 in
03:19 33.6 °F 29.9 °F 30.14 in Calm     86 % 0.00 in
03:24 33.4 °F 29.9 °F 30.14 in Calm     87 % 0.00 in
03:29 33.3 °F 29.8 °F 30.14 in Calm     87 % 0.00 in
03:34 33.3 °F 30.1 °F 30.13 in Calm     88 % 0.00 in
03:39 33.6 °F 30.1 °F 30.13 in Calm     87 % 0.00 in
03:44 33.5 °F 30.0 °F 30.13 in Calm     87 % 0.00 in
03:49 33.5 °F 30.0 °F 30.13 in Calm     87 % 0.00 in
03:54 33.4 °F 29.9 °F 30.12 in Calm     87 % 0.00 in
03:59 33.5 °F 30.3 °F 30.12 in Calm     88 % 0.00 in
04:04 33.7 °F 30.2 °F 30.12 in Calm     87 % 0.00 in
04:09 33.8 °F 30.3 °F 30.12 in Calm     87 % 0.00 in
04:14 33.8 °F 30.3 °F 30.12 in Calm     87 % 0.00 in
04:19 34.0 °F 30.5 °F 30.12 in Calm     87 % 0.00 in
04:24 34.3 °F 30.8 °F 30.12 in Calm     87 % 0.00 in
04:29 34.4 °F 30.6 °F 30.12 in Calm     86 % 0.00 in
04:34 34.3 °F 30.5 °F 30.12 in Calm     86 % 0.00 in
04:39 34.2 °F 30.4 °F 30.11 in Calm     86 % 0.00 in
04:44 34.1 °F 30.4 °F 30.11 in Calm     86 % 0.00 in
04:49 34.0 °F 30.3 °F 30.11 in Calm     86 % 0.00 in
04:54 34.1 °F 30.6 °F 30.11 in Calm     87 % 0.00 in
04:59 34.2 °F 30.4 °F 30.11 in Calm     86 % 0.00 in
05:04 34.1 °F 30.4 °F 30.11 in Calm     86 % 0.00 in
05:09 34.1 °F 30.6 °F 30.10 in Calm     87 % 0.00 in
05:14 34.1 °F 30.6 °F 30.10 in Calm     87 % 0.00 in
05:19 34.1 °F 30.6 °F 30.10 in Calm     87 % 0.00 in
05:24 34.2 °F 30.7 °F 30.10 in Calm     87 % 0.00 in
05:29 34.4 °F 30.9 °F 30.10 in Calm     87 % 0.00 in
05:34 34.1 °F 30.4 °F 30.10 in Calm     86 % 0.00 in
05:39 33.8 °F 30.1 °F 30.10 in Calm     86 % 0.00 in
05:44 33.6 °F 29.9 °F 30.10 in Calm     86 % 0.00 in
05:49 33.3 °F 29.6 °F 30.10 in Calm     86 % 0.00 in
05:54 33.1 °F 29.4 °F 30.09 in Calm     86 % 0.00 in
05:59 33.1 °F 29.7 °F 30.10 in Calm     87 % 0.00 in
06:04 33.0 °F 29.6 °F 30.10 in Calm     87 % 0.00 in
06:09 33.1 °F 29.9 °F 30.09 in Calm     88 % 0.00 in
06:14 33.2 °F 30.0 °F 30.10 in Calm     88 % 0.00 in
06:19 33.1 °F 29.7 °F 30.10 in Calm     87 % 0.00 in
06:24 33.2 °F 30.0 °F 30.10 in Calm     88 % 0.00 in
06:29 33.2 °F 30.0 °F 30.10 in Calm     88 % 0.00 in
06:30 33.2 °F 30.0 °F 30.10 in Calm     88 % 0.00 in
06:35 33.5 °F 30.3 °F 30.10 in Calm     88 % 0.00 in
06:40 33.6 °F 30.4 °F 30.10 in Calm     88 % 0.00 in
06:45 33.9 °F 30.7 °F 30.10 in Calm     88 % 0.00 in
06:50 34.0 °F 30.5 °F 30.10 in Calm     87 % 0.00 in
06:55 34.1 °F 30.9 °F 30.10 in Calm     88 % 0.00 in
07:00 34.6 °F 31.4 °F 30.10 in Calm     88 % 0.00 in
07:05 35.2 °F 31.7 °F 30.10 in Calm     87 % 0.00 in
07:10 35.6 °F 32.1 °F 30.10 in Calm     87 % 0.00 in
07:15 36.0 °F 32.5 °F 30.10 in SSE 1.2 mph 1.2 mph 87 % 0.00 in
07:20 36.1 °F 32.3 °F 30.10 in Calm     86 % 0.00 in
07:25 36.4 °F 32.9 °F 30.11 in Calm     87 % 0.00 in
07:30 36.6 °F 32.8 °F 30.10 in Calm     86 % 0.00 in
07:35 36.9 °F 33.1 °F 30.11 in Calm     86 % 0.00 in
07:40 37.2 °F 33.4 °F 30.11 in Calm     86 % 0.00 in
07:45 38.0 °F 34.2 °F 30.10 in Calm     86 % 0.00 in
07:50 38.8 °F 33.8 °F 30.10 in Calm     82 % 0.00 in
07:55 39.3 °F 34.3 °F 30.10 in Calm     82 % 0.00 in
08:00 40.1 °F 35.0 °F 30.10 in Calm     82 % 0.00 in
08:05 41.1 °F 35.7 °F 30.10 in Calm     81 % 0.00 in
08:10 42.0 °F 36.0 °F 30.10 in ESE 1.2 mph   79 % 0.00 in
08:15 43.0 °F 36.3 °F 30.10 in Calm     77 % 0.00 in
08:20 44.2 °F 37.1 °F 30.10 in Calm     76 % 0.00 in
08:25 45.3 °F 36.8 °F 30.09 in SSE 2.3 mph   72 % 0.00 in
08:30 46.2 °F 37.0 °F 30.09 in Calm     70 % 0.00 in
08:35 46.8 °F 36.4 °F 30.09 in SE 1.2 mph 1.2 mph 67 % 0.00 in
08:40 46.9 °F 36.5 °F 30.09 in SE 1.2 mph   67 % 0.00 in
08:45 47.1 °F 36.3 °F 30.09 in South 1.2 mph 1.2 mph 66 % 0.00 in
08:50 47.6 °F 36.0 °F 30.09 in SE 2.3 mph 2.3 mph 64 % 0.00 in
08:55 48.1 °F 35.7 °F 30.08 in SSE 2.3 mph 2.3 mph 62 % 0.00 in
09:00 48.7 °F 35.4 °F 30.08 in South 2.3 mph 2.3 mph 60 % 0.00 in
09:05 49.3 °F 36.0 °F 30.08 in SSE 1.2 mph   60 % 0.00 in
09:10 50.0 °F 36.7 °F 30.08 in SSE 1.2 mph   60 % 0.00 in
09:15 50.4 °F 36.2 °F 30.08 in SSE 2.3 mph 2.3 mph 58 % 0.00 in
09:20 50.9 °F 36.2 °F 30.07 in SE 1.2 mph 1.2 mph 57 % 0.00 in
09:25 51.2 °F 36.0 °F 30.07 in SE 2.3 mph 2.3 mph 56 % 0.00 in
09:30 51.5 °F 36.3 °F 30.07 in SSE 2.3 mph   56 % 0.00 in
09:35 51.6 °F 36.4 °F 30.07 in Calm   0.6 mph 56 % 0.00 in
09:40 51.9 °F 36.7 °F 30.07 in Calm   0.6 mph 56 % 0.00 in
09:45 52.3 °F 37.5 °F 30.06 in SSE 2.3 mph   57 % 0.00 in
09:50 53.0 °F 37.3 °F 30.06 in NNW 2.3 mph 2.3 mph 55 % 0.00 in
09:55 53.3 °F 37.5 °F 30.06 in East 2.3 mph 2.3 mph 55 % 0.00 in
10:00 53.7 °F 37.9 °F 30.06 in Calm     55 % 0.00 in
10:05 54.3 °F 37.5 °F 30.06 in ESE 1.2 mph 1.2 mph 53 % 0.00 in
10:11 54.6 °F 36.8 °F 30.06 in WNW 2.0 mph 2.0 mph 51 % 0.00 in
10:16 54.5 °F 37.7 °F 30.05 in SSW 2.3 mph 2.3 mph 53 % 0.00 in
10:21 54.8 °F 38.0 °F 30.05 in Calm     53 % 0.00 in
10:26 55.7 °F 37.8 °F 30.05 in SW 1.2 mph   51 % 0.00 in
10:31 55.7 °F 37.3 °F 30.05 in SSE 1.2 mph 1.2 mph 50 % 0.00 in
10:36 56.1 °F 37.7 °F 30.05 in Calm     50 % 0.00 in
10:41 56.6 °F 37.1 °F 30.04 in West 2.3 mph 2.3 mph 48 % 0.00 in
10:46 57.2 °F 36.6 °F 30.04 in WNW 2.3 mph 2.3 mph 46 % 0.00 in
10:51 56.8 °F 37.3 °F 30.04 in SSW 2.3 mph 2.3 mph 48 % 0.00 in
10:56 57.7 °F 37.6 °F 30.03 in SSE 1.2 mph 1.2 mph 47 % 0.00 in
11:01 57.8 °F 37.7 °F 30.03 in SE 3.5 mph 3.5 mph 47 % 0.00 in
11:06 57.8 °F 37.1 °F 30.03 in SE 2.3 mph 2.3 mph 46 % 0.00 in
11:11 58.0 °F 37.9 °F 30.03 in SSE 2.3 mph 2.3 mph 47 % 0.00 in
11:16 57.8 °F 36.0 °F 30.03 in NNE 2.3 mph 2.3 mph 44 % 0.00 in
11:21 57.7 °F 36.5 °F 30.03 in SE 2.3 mph 2.3 mph 45 % 0.00 in
11:26 58.1 °F 37.4 °F 30.02 in NNW 2.0 mph 2.0 mph 46 % 0.00 in
11:31 58.1 °F 36.9 °F 30.02 in SSE 1.2 mph 1.2 mph 45 % 0.00 in
11:36 57.8 °F 36.6 °F 30.01 in Calm     45 % 0.00 in
11:41 57.9 °F 36.7 °F 30.01 in ESE 1.2 mph 1.2 mph 45 % 0.00 in
11:46 58.0 °F 36.2 °F 30.01 in NNW 1.2 mph 1.2 mph 44 % 0.00 in
11:51 57.7 °F 36.5 °F 30.01 in SE 2.3 mph 2.3 mph 45 % 0.00 in
11:56 57.6 °F 35.2 °F 30.00 in NW 2.3 mph 2.3 mph 43 % 0.00 in
12:01 57.1 °F 35.9 °F 30.00 in Calm     45 % 0.00 in
12:06 57.0 °F 35.3 °F 30.00 in NW 3.5 mph 3.5 mph 44 % 0.00 in
12:11 57.3 °F 35.0 °F 29.99 in NNW 1.2 mph 1.2 mph 43 % 0.00 in
12:16 57.6 °F 35.8 °F 29.99 in South 1.2 mph   44 % 0.00 in
12:21 57.9 °F 35.5 °F 29.98 in Calm     43 % 0.00 in
12:26 58.1 °F 35.1 °F 29.98 in NNW 1.2 mph 1.2 mph 42 % 0.00 in
12:31 57.7 °F 34.7 °F 29.98 in NW 2.3 mph 2.3 mph 42 % 0.00 in
12:36 57.4 °F 35.1 °F 29.97 in NW 1.2 mph   43 % 0.00 in
12:41 57.4 °F 34.5 °F 29.97 in NW 2.3 mph 2.3 mph 42 % 0.00 in
12:46 57.4 °F 34.5 °F 29.97 in NW 2.3 mph 2.3 mph 42 % 0.00 in
12:51 57.3 °F 34.4 °F 29.97 in WNW 1.2 mph 1.2 mph 42 % 0.00 in
12:56 57.2 °F 33.1 °F 29.96 in WSW 1.2 mph   40 % 0.00 in
13:01 57.1 °F 33.6 °F 29.96 in Calm     41 % 0.00 in
13:06 57.0 °F 33.5 °F 29.96 in Calm     41 % 0.00 in
13:11 57.1 °F 34.2 °F 29.95 in Calm     42 % 0.00 in
13:16 57.2 °F 34.3 °F 29.95 in Calm     42 % 0.00 in
13:21 57.3 °F 35.0 °F 29.95 in Calm     43 % 0.00 in
13:26 57.1 °F 33.6 °F 29.95 in Calm     41 % 0.00 in
13:32 56.9 °F 34.0 °F 29.95 in NW 1.2 mph   42 % 0.00 in
13:37 56.7 °F 33.2 °F 29.94 in Calm     41 % 0.00 in
13:42 56.8 °F 33.3 °F 29.94 in Calm     41 % 0.00 in
13:46 56.8 °F 33.3 °F 29.94 in WNW 1.2 mph 1.2 mph 41 % 0.00 in
13:51 56.8 °F 33.3 °F 29.94 in WNW 1.2 mph 1.2 mph 41 % 0.00 in
13:57 56.7 °F 33.2 °F 29.94 in Calm     41 % 0.00 in
14:02 56.6 °F 33.2 °F 29.93 in West 1.2 mph 1.2 mph 41 % 0.00 in
14:07 56.5 °F 33.1 °F 29.93 in Calm     41 % 0.00 in
14:12 56.5 °F 33.7 °F 29.93 in NW 1.2 mph 1.2 mph 42 % 0.00 in
14:17 56.5 °F 33.7 °F 29.93 in Calm     42 % 0.00 in
14:22 56.5 °F 34.3 °F 29.93 in WNW 1.2 mph 1.2 mph 43 % 0.00 in
14:27 56.4 °F 33.6 °F 29.93 in NNW 2.3 mph 2.3 mph 42 % 0.00 in
14:32 56.3 °F 34.1 °F 29.92 in NW 1.2 mph 1.2 mph 43 % 0.00 in
14:37 56.2 °F 34.0 °F 29.92 in Calm     43 % 0.00 in
14:42 56.2 °F 33.4 °F 29.92 in Calm     42 % 0.00 in
14:47 56.2 °F 33.4 °F 29.92 in Calm     42 % 0.00 in
14:52 56.3 °F 34.1 °F 29.92 in North 1.2 mph 1.2 mph 43 % 0.00 in
14:57 56.3 °F 33.5 °F 29.92 in NW 1.2 mph 1.2 mph 42 % 0.00 in
15:02 56.3 °F 32.9 °F 29.92 in Calm     41 % 0.00 in
15:07 56.3 °F 32.9 °F 29.91 in West 1.2 mph 1.2 mph 41 % 0.00 in
15:12 56.3 °F 33.5 °F 29.91 in Calm     42 % 0.00 in
15:17 56.3 °F 33.5 °F 29.91 in NW 1.2 mph 1.2 mph 42 % 0.00 in
15:22 56.3 °F 32.9 °F 29.91 in NNW 1.2 mph   41 % 0.00 in
15:27 56.4 °F 33.6 °F 29.91 in NW 1.2 mph 1.2 mph 42 % 0.00 in
15:32 56.3 °F 32.9 °F 29.91 in Calm     41 % 0.00 in
15:37 56.3 °F 33.5 °F 29.91 in Calm     42 % 0.00 in
15:42 56.2 °F 33.4 °F 29.90 in Calm     42 % 0.00 in
15:47 56.1 °F 33.9 °F 29.90 in NW 1.2 mph 1.2 mph 43 % 0.00 in
15:52 56.0 °F 34.4 °F 29.90 in NW 1.2 mph 1.2 mph 44 % 0.00 in
15:57 55.9 °F 33.7 °F 29.90 in WNW 2.3 mph 2.3 mph 43 % 0.00 in
16:02 55.8 °F 34.2 °F 29.90 in NW 1.2 mph 1.2 mph 44 % 0.00 in
16:07 55.8 °F 34.2 °F 29.90 in NW 1.0 mph 1.0 mph 44 % 0.00 in
16:12 55.8 °F 34.8 °F 29.89 in NW 1.0 mph 1.0 mph 45 % 0.00 in
16:22 55.6 °F 34.6 °F 29.89 in NW 2.3 mph 2.3 mph 45 % 0.00 in
16:27 55.4 °F 33.3 °F 29.89 in WNW 3.0 mph 3.0 mph 43 % 0.00 in
16:32 55.4 °F 34.4 °F 29.89 in West 2.3 mph 2.3 mph 45 % 0.00 in
16:37 55.2 °F 32.5 °F 29.89 in West 3.5 mph 3.5 mph 42 % 0.00 in
16:42 55.1 °F 32.4 °F 29.89 in WNW 2.3 mph 2.3 mph 42 % 0.00 in
16:47 55.1 °F 32.4 °F 29.89 in Calm     42 % 0.00 in
16:52 54.9 °F 32.8 °F 29.88 in NW 1.2 mph 1.2 mph 43 % 0.00 in
16:57 54.8 °F 33.3 °F 29.88 in SSE 1.2 mph   44 % 0.00 in
17:02 54.7 °F 33.8 °F 29.88 in SSE 1.2 mph   45 % 0.00 in
17:07 54.5 °F 33.6 °F 29.89 in NW 5.0 mph 5.0 mph 45 % 0.00 in
17:12 52.7 °F 40.9 °F 29.89 in NNW 6.9 mph 6.9 mph 64 % 0.00 in
17:17 51.4 °F 40.8 °F 29.89 in WNW 8.1 mph 8.1 mph 67 % 0.00 in
17:22 50.4 °F 41.0 °F 29.89 in NW 8.1 mph 8.1 mph 70 % 0.00 in
17:27 49.6 °F 41.3 °F 29.89 in NNW 4.6 mph 4.6 mph 73 % 0.00 in
17:32 49.1 °F 40.8 °F 29.89 in NW 4.0 mph 4.0 mph 73 % 0.00 in
17:37 48.7 °F 40.8 °F 29.89 in WNW 4.6 mph 4.6 mph 74 % 0.00 in
17:42 48.4 °F 40.8 °F 29.89 in NW 3.5 mph 3.5 mph 75 % 0.00 in
17:47 48.0 °F 40.5 °F 29.89 in NW 5.8 mph 5.8 mph 75 % 0.00 in
17:52 47.7 °F 40.2 °F 29.89 in NW 8.1 mph 8.1 mph 75 % 0.00 in
17:57 47.5 °F 40.3 °F 29.89 in NW 6.9 mph 6.9 mph 76 % 0.00 in
18:02 47.5 °F 40.3 °F 29.89 in NW 6.9 mph 6.9 mph 76 % 0.00 in
18:12 47.3 °F 40.5 °F 29.89 in NW 5.8 mph 5.8 mph 77 % 0.00 in
18:17 47.2 °F 40.4 °F 29.89 in NW 3.5 mph 3.5 mph 77 % 0.00 in
18:23 47.2 °F 40.7 °F 29.89 in WSW 9.0 mph 9.0 mph 78 % 0.00 in
18:28 47.1 °F 40.6 °F 29.89 in NW 6.9 mph 6.9 mph 78 % 0.00 in
18:33 47.0 °F 40.8 °F 29.89 in WNW 3.5 mph 3.5 mph 79 % 0.00 in
18:38 46.9 °F 40.7 °F 29.89 in NW 2.3 mph 2.3 mph 79 % 0.00 in
18:43 46.8 °F 40.6 °F 29.89 in NW 3.5 mph 3.5 mph 79 % 0.00 in
18:48 46.8 °F 40.6 °F 29.89 in NW 3.5 mph 3.5 mph 79 % 0.00 in
18:53 46.7 °F 40.5 °F 29.89 in NW 1.2 mph 1.2 mph 79 % 0.00 in
18:58 46.7 °F 40.5 °F 29.89 in NNW 2.3 mph 2.3 mph 79 % 0.00 in
19:03 46.6 °F 40.8 °F 29.89 in Calm     80 % 0.00 in
19:08 46.6 °F 40.8 °F 29.89 in West 1.0 mph   80 % 0.00 in
19:13 46.6 °F 40.8 °F 29.89 in Calm     80 % 0.00 in
19:18 46.5 °F 41.0 °F 29.89 in WNW 1.2 mph 1.2 mph 81 % 0.00 in
19:23 46.4 °F 41.2 °F 29.89 in NW 1.2 mph 1.2 mph 82 % 0.00 in
19:28 46.2 °F 41.3 °F 29.89 in WNW 1.2 mph 1.2 mph 83 % 0.00 in
19:33 46.1 °F 41.5 °F 29.89 in Calm     84 % 0.00 in
19:38 46.0 °F 41.4 °F 29.89 in Calm     84 % 0.00 in
19:43 45.9 °F 41.6 °F 29.89 in Calm     85 % 0.00 in
19:48 45.8 °F 41.9 °F 29.89 in WNW 1.0 mph 1.0 mph 86 % 0.00 in
19:53 45.7 °F 41.8 °F 29.89 in Calm     86 % 0.00 in
19:58 45.7 °F 42.1 °F 29.89 in Calm     87 % 0.00 in
20:03 45.6 °F 42.3 °F 29.90 in Calm     88 % 0.00 in
20:08 45.6 °F 42.3 °F 29.90 in Calm     88 % 0.00 in
20:13 45.5 °F 42.2 °F 29.90 in Calm     88 % 0.00 in
20:18 45.5 °F 42.4 °F 29.90 in Calm     89 % 0.00 in
20:23 45.5 °F 42.4 °F 29.90 in Calm     89 % 0.00 in
20:28 45.4 °F 42.3 °F 29.90 in Calm     89 % 0.00 in
20:33 45.4 °F 42.6 °F 29.90 in Calm     90 % 0.00 in
20:38 45.3 °F 42.5 °F 29.90 in Calm     90 % 0.00 in
20:43 45.2 °F 42.4 °F 29.90 in Calm     90 % 0.00 in
20:48 45.2 °F 42.4 °F 29.90 in Calm     90 % 0.00 in
20:53 45.2 °F 42.4 °F 29.90 in Calm     90 % 0.00 in
20:58 45.2 °F 42.4 °F 29.90 in Calm     90 % 0.00 in
21:03 45.2 °F 42.4 °F 29.90 in Calm     90 % 0.01 in
21:08 45.2 °F 42.7 °F 29.90 in Calm     91 % 0.01 in
21:13 45.1 °F 42.6 °F 29.90 in Calm     91 % 0.02 in
21:18 45.1 °F 42.6 °F 29.90 in Calm     91 % 0.02 in
21:23 45.0 °F 42.5 °F 29.90 in Calm     91 % 0.02 in
21:28 44.9 °F 42.7 °F 29.90 in Calm     92 % 0.03 in
21:33 44.9 °F 42.7 °F 29.90 in Calm     92 % 0.03 in
21:38 44.8 °F 42.6 °F 29.91 in Calm     92 % 0.03 in
21:43 44.8 °F 42.6 °F 29.91 in Calm     92 % 0.04 in
21:48 44.8 °F 42.6 °F 29.91 in Calm     92 % 0.04 in
21:53 44.8 °F 42.9 °F 29.91 in Calm     93 % 0.05 in
21:58 44.7 °F 42.8 °F 29.91 in Calm     93 % 0.05 in
22:03 44.8 °F 42.9 °F 29.91 in Calm     93 % 0.04 in
22:08 44.7 °F 42.8 °F 29.91 in SSW 1.2 mph   93 % 0.05 in
22:13 44.6 °F 42.7 °F 29.91 in South 1.2 mph 1.2 mph 93 % 0.04 in
22:18 44.6 °F 42.7 °F 29.91 in Calm     93 % 0.05 in
22:24 44.6 °F 42.7 °F 29.91 in SSE 1.2 mph   93 % 0.06 in
22:29 44.6 °F 42.7 °F 29.91 in SE 3.5 mph 3.5 mph 93 % 0.06 in
22:34 44.6 °F 43.0 °F 29.91 in SE 1.2 mph   94 % 0.08 in
22:39 44.5 °F 42.9 °F 29.91 in SE 3.5 mph 3.5 mph 94 % 0.09 in
22:44 44.3 °F 42.7 °F 29.91 in South 2.3 mph 2.3 mph 94 % 0.09 in
22:49 44.3 °F 42.7 °F 29.91 in SE 3.5 mph 3.5 mph 94 % 0.11 in
22:54 44.1 °F 42.5 °F 29.91 in ESE 2.3 mph 2.3 mph 94 % 0.11 in
22:59 44.1 °F 42.5 °F 29.91 in ESE 2.3 mph 2.3 mph 94 % 0.12 in
23:04 44.1 °F 42.5 °F 29.91 in ESE 1.2 mph   94 % 0.12 in
23:09 44.1 °F 42.5 °F 29.91 in ESE 1.2 mph 1.2 mph 94 % 0.13 in
23:14 44.1 °F 42.5 °F 29.91 in ESE 1.2 mph 1.2 mph 94 % 0.13 in
23:19 44.0 °F 42.4 °F 29.91 in ESE 1.2 mph   94 % 0.13 in
23:24 43.9 °F 42.3 °F 29.91 in Calm     94 % 0.12 in
23:29 43.7 °F 42.1 °F 29.91 in ESE 1.2 mph 1.2 mph 94 % 0.11 in
23:34 43.6 °F 42.0 °F 29.91 in ESE 1.2 mph 1.2 mph 94 % 0.10 in
23:39 43.6 °F 42.0 °F 29.91 in ESE 1.2 mph 1.2 mph 94 % 0.10 in
23:44 43.5 °F 41.9 °F 29.91 in ESE 1.2 mph   94 % 0.08 in
23:49 43.5 °F 41.9 °F 29.91 in Calm     94 % 0.08 in
23:54 43.5 °F 41.9 °F 29.91 in ESE 3.5 mph 3.5 mph 94 % 0.07 in
23:59 43.5 °F 41.9 °F 29.92 in Calm     94 % 0.06 in
Park Place, Exeter, Tulare County, California, USA
Compliments of Weather Underground - 2.75 mb